sensor_id;sensor_type;location;lat;lon;timestamp;P1;durP1;ratioP1;P2;durP2;ratioP2
19585;SDS011;9939;49.246;9.106;2022-08-19T00:01:23;17.73;;;12.00;;
19585;SDS011;9939;49.246;9.106;2022-08-19T00:03:59;17.30;;;12.37;;
19585;SDS011;9939;49.246;9.106;2022-08-19T00:06:29;18.10;;;12.87;;
19585;SDS011;9939;49.246;9.106;2022-08-19T00:08:57;17.30;;;12.60;;
19585;SDS011;9939;49.246;9.106;2022-08-19T00:11:26;19.67;;;13.13;;
19585;SDS011;9939;49.246;9.106;2022-08-19T00:13:54;18.13;;;12.17;;
19585;SDS011;9939;49.246;9.106;2022-08-19T00:16:24;22.10;;;12.30;;
19585;SDS011;9939;49.246;9.106;2022-08-19T00:18:52;19.40;;;12.87;;
19585;SDS011;9939;49.246;9.106;2022-08-19T00:21:25;20.17;;;13.17;;
19585;SDS011;9939;49.246;9.106;2022-08-19T00:23:53;16.83;;;11.33;;
19585;SDS011;9939;49.246;9.106;2022-08-19T00:26:25;19.00;;;12.40;;
19585;SDS011;9939;49.246;9.106;2022-08-19T00:28:53;18.57;;;12.47;;
19585;SDS011;9939;49.246;9.106;2022-08-19T00:31:21;19.47;;;12.53;;
19585;SDS011;9939;49.246;9.106;2022-08-19T00:33:48;20.63;;;12.97;;
19585;SDS011;9939;49.246;9.106;2022-08-19T00:36:16;18.53;;;12.40;;
19585;SDS011;9939;49.246;9.106;2022-08-19T00:38:43;19.80;;;12.60;;
19585;SDS011;9939;49.246;9.106;2022-08-19T00:41:14;21.27;;;13.43;;
19585;SDS011;9939;49.246;9.106;2022-08-19T00:43:50;19.53;;;12.80;;
19585;SDS011;9939;49.246;9.106;2022-08-19T00:46:34;19.20;;;12.17;;
19585;SDS011;9939;49.246;9.106;2022-08-19T00:49:06;16.90;;;11.40;;
19585;SDS011;9939;49.246;9.106;2022-08-19T00:51:55;19.03;;;12.40;;
19585;SDS011;9939;49.246;9.106;2022-08-19T00:54:32;18.60;;;11.80;;
19585;SDS011;9939;49.246;9.106;2022-08-19T00:57:00;18.27;;;12.17;;
19585;SDS011;9939;49.246;9.106;2022-08-19T00:59:33;20.67;;;12.60;;
19585;SDS011;9939;49.246;9.106;2022-08-19T01:02:22;17.83;;;12.10;;
19585;SDS011;9939;49.246;9.106;2022-08-19T01:04:50;19.57;;;12.97;;
19585;SDS011;9939;49.246;9.106;2022-08-19T01:07:17;20.73;;;13.03;;
19585;SDS011;9939;49.246;9.106;2022-08-19T01:09:45;22.53;;;12.50;;
19585;SDS011;9939;49.246;9.106;2022-08-19T01:12:12;18.13;;;12.10;;
19585;SDS011;9939;49.246;9.106;2022-08-19T01:14:40;17.87;;;12.37;;
19585;SDS011;9939;49.246;9.106;2022-08-19T01:17:08;18.10;;;11.90;;
19585;SDS011;9939;49.246;9.106;2022-08-19T01:19:37;18.37;;;12.63;;
19585;SDS011;9939;49.246;9.106;2022-08-19T01:24:42;19.07;;;12.67;;
19585;SDS011;9939;49.246;9.106;2022-08-19T01:27:15;18.37;;;11.87;;
19585;SDS011;9939;49.246;9.106;2022-08-19T01:29:43;20.03;;;12.97;;
19585;SDS011;9939;49.246;9.106;2022-08-19T01:32:12;22.23;;;13.87;;
19585;SDS011;9939;49.246;9.106;2022-08-19T01:34:59;20.83;;;13.27;;
19585;SDS011;9939;49.246;9.106;2022-08-19T01:37:28;17.47;;;12.57;;
19585;SDS011;9939;49.246;9.106;2022-08-19T01:39:57;21.20;;;13.30;;
19585;SDS011;9939;49.246;9.106;2022-08-19T01:42:24;18.17;;;11.97;;
19585;SDS011;9939;49.246;9.106;2022-08-19T01:44:56;24.27;;;13.70;;
19585;SDS011;9939;49.246;9.106;2022-08-19T01:47:23;22.53;;;14.27;;
19585;SDS011;9939;49.246;9.106;2022-08-19T01:49:50;22.93;;;14.17;;
19585;SDS011;9939;49.246;9.106;2022-08-19T01:52:17;23.47;;;15.00;;
19585;SDS011;9939;49.246;9.106;2022-08-19T01:54:44;24.97;;;15.07;;
19585;SDS011;9939;49.246;9.106;2022-08-19T01:57:12;22.97;;;14.07;;
19585;SDS011;9939;49.246;9.106;2022-08-19T01:59:40;22.87;;;14.47;;
19585;SDS011;9939;49.246;9.106;2022-08-19T02:02:09;24.90;;;14.93;;
19585;SDS011;9939;49.246;9.106;2022-08-19T02:04:37;26.10;;;15.60;;
19585;SDS011;9939;49.246;9.106;2022-08-19T02:07:05;23.47;;;14.20;;
19585;SDS011;9939;49.246;9.106;2022-08-19T02:09:34;23.93;;;15.03;;
19585;SDS011;9939;49.246;9.106;2022-08-19T02:12:01;28.40;;;16.37;;
19585;SDS011;9939;49.246;9.106;2022-08-19T02:14:29;23.93;;;14.97;;
19585;SDS011;9939;49.246;9.106;2022-08-19T02:16:56;25.70;;;14.73;;
19585;SDS011;9939;49.246;9.106;2022-08-19T02:19:23;27.80;;;16.53;;
19585;SDS011;9939;49.246;9.106;2022-08-19T02:21:50;26.63;;;15.83;;
19585;SDS011;9939;49.246;9.106;2022-08-19T02:24:17;23.87;;;14.33;;
19585;SDS011;9939;49.246;9.106;2022-08-19T02:26:44;26.53;;;15.67;;
19585;SDS011;9939;49.246;9.106;2022-08-19T02:29:11;24.23;;;14.80;;
19585;SDS011;9939;49.246;9.106;2022-08-19T02:31:38;26.00;;;15.53;;
19585;SDS011;9939;49.246;9.106;2022-08-19T02:34:05;26.30;;;15.10;;
19585;SDS011;9939;49.246;9.106;2022-08-19T02:36:32;25.97;;;16.20;;
19585;SDS011;9939;49.246;9.106;2022-08-19T02:38:59;25.33;;;15.40;;
19585;SDS011;9939;49.246;9.106;2022-08-19T02:41:27;25.63;;;15.63;;
19585;SDS011;9939;49.246;9.106;2022-08-19T02:43:57;25.63;;;15.13;;
19585;SDS011;9939;49.246;9.106;2022-08-19T02:46:47;27.07;;;15.33;;
19585;SDS011;9939;49.246;9.106;2022-08-19T02:49:17;26.50;;;15.40;;
19585;SDS011;9939;49.246;9.106;2022-08-19T02:51:45;25.90;;;15.63;;
19585;SDS011;9939;49.246;9.106;2022-08-19T02:54:13;27.27;;;16.00;;
19585;SDS011;9939;49.246;9.106;2022-08-19T02:56:41;24.13;;;14.77;;
19585;SDS011;9939;49.246;9.106;2022-08-19T02:59:10;27.00;;;15.20;;
19585;SDS011;9939;49.246;9.106;2022-08-19T03:01:39;27.57;;;15.43;;
19585;SDS011;9939;49.246;9.106;2022-08-19T03:04:08;30.67;;;16.13;;
19585;SDS011;9939;49.246;9.106;2022-08-19T03:06:39;28.83;;;15.97;;
19585;SDS011;9939;49.246;9.106;2022-08-19T03:09:08;31.20;;;16.67;;
19585;SDS011;9939;49.246;9.106;2022-08-19T03:11:36;29.37;;;17.87;;
19585;SDS011;9939;49.246;9.106;2022-08-19T03:14:04;27.43;;;16.37;;
19585;SDS011;9939;49.246;9.106;2022-08-19T03:16:34;30.57;;;17.10;;
19585;SDS011;9939;49.246;9.106;2022-08-19T03:19:06;29.47;;;16.57;;
19585;SDS011;9939;49.246;9.106;2022-08-19T03:21:34;31.43;;;16.40;;
19585;SDS011;9939;49.246;9.106;2022-08-19T03:24:02;23.93;;;14.97;;
19585;SDS011;9939;49.246;9.106;2022-08-19T03:26:32;29.97;;;16.47;;
19585;SDS011;9939;49.246;9.106;2022-08-19T03:29:03;28.87;;;15.97;;
19585;SDS011;9939;49.246;9.106;2022-08-19T03:31:31;25.53;;;15.33;;
19585;SDS011;9939;49.246;9.106;2022-08-19T03:34:19;28.80;;;15.27;;
19585;SDS011;9939;49.246;9.106;2022-08-19T03:36:54;26.10;;;15.50;;
19585;SDS011;9939;49.246;9.106;2022-08-19T03:39:23;28.13;;;15.70;;
19585;SDS011;9939;49.246;9.106;2022-08-19T03:41:52;25.07;;;15.47;;
19585;SDS011;9939;49.246;9.106;2022-08-19T03:44:43;30.87;;;16.37;;
19585;SDS011;9939;49.246;9.106;2022-08-19T03:47:11;26.17;;;15.57;;
19585;SDS011;9939;49.246;9.106;2022-08-19T03:49:42;28.70;;;16.17;;
19585;SDS011;9939;49.246;9.106;2022-08-19T03:52:09;25.57;;;14.83;;
19585;SDS011;9939;49.246;9.106;2022-08-19T03:54:37;28.07;;;15.73;;
19585;SDS011;9939;49.246;9.106;2022-08-19T03:57:05;26.73;;;16.27;;
19585;SDS011;9939;49.246;9.106;2022-08-19T03:59:33;28.03;;;15.87;;
19585;SDS011;9939;49.246;9.106;2022-08-19T04:02:03;26.17;;;15.87;;
19585;SDS011;9939;49.246;9.106;2022-08-19T04:04:36;29.10;;;15.63;;
19585;SDS011;9939;49.246;9.106;2022-08-19T04:07:08;31.13;;;17.50;;
19585;SDS011;9939;49.246;9.106;2022-08-19T04:09:36;27.80;;;15.97;;
19585;SDS011;9939;49.246;9.106;2022-08-19T04:12:03;28.13;;;16.50;;
19585;SDS011;9939;49.246;9.106;2022-08-19T04:14:31;27.07;;;16.70;;
19585;SDS011;9939;49.246;9.106;2022-08-19T04:17:00;26.77;;;16.50;;
19585;SDS011;9939;49.246;9.106;2022-08-19T04:19:31;26.53;;;15.50;;
19585;SDS011;9939;49.246;9.106;2022-08-19T04:21:59;27.17;;;16.07;;
19585;SDS011;9939;49.246;9.106;2022-08-19T04:24:26;25.80;;;15.10;;
19585;SDS011;9939;49.246;9.106;2022-08-19T04:26:53;28.37;;;17.17;;
19585;SDS011;9939;49.246;9.106;2022-08-19T04:29:22;28.67;;;17.37;;
19585;SDS011;9939;49.246;9.106;2022-08-19T04:31:52;26.43;;;16.63;;
19585;SDS011;9939;49.246;9.106;2022-08-19T04:34:22;25.70;;;15.63;;
19585;SDS011;9939;49.246;9.106;2022-08-19T04:36:51;25.77;;;15.40;;
19585;SDS011;9939;49.246;9.106;2022-08-19T04:39:23;28.23;;;16.47;;
19585;SDS011;9939;49.246;9.106;2022-08-19T04:42:11;28.80;;;14.97;;
19585;SDS011;9939;49.246;9.106;2022-08-19T04:44:57;27.10;;;15.77;;
19585;SDS011;9939;49.246;9.106;2022-08-19T04:47:25;29.23;;;16.10;;
19585;SDS011;9939;49.246;9.106;2022-08-19T04:50:13;28.63;;;15.33;;
19585;SDS011;9939;49.246;9.106;2022-08-19T04:52:44;29.00;;;15.20;;
19585;SDS011;9939;49.246;9.106;2022-08-19T04:55:11;26.10;;;15.90;;
19585;SDS011;9939;49.246;9.106;2022-08-19T04:57:38;27.50;;;15.73;;
19585;SDS011;9939;49.246;9.106;2022-08-19T05:00:09;27.13;;;15.80;;
19585;SDS011;9939;49.246;9.106;2022-08-19T05:02:37;26.17;;;14.97;;
19585;SDS011;9939;49.246;9.106;2022-08-19T05:05:05;25.67;;;14.63;;
19585;SDS011;9939;49.246;9.106;2022-08-19T05:07:32;24.23;;;14.80;;
19585;SDS011;9939;49.246;9.106;2022-08-19T05:10:00;30.40;;;16.50;;
19585;SDS011;9939;49.246;9.106;2022-08-19T05:12:27;22.10;;;13.93;;
19585;SDS011;9939;49.246;9.106;2022-08-19T05:14:55;24.50;;;14.27;;
19585;SDS011;9939;49.246;9.106;2022-08-19T05:17:24;28.63;;;15.20;;
19585;SDS011;9939;49.246;9.106;2022-08-19T05:19:55;21.43;;;13.20;;
19585;SDS011;9939;49.246;9.106;2022-08-19T05:22:42;26.07;;;14.43;;
19585;SDS011;9939;49.246;9.106;2022-08-19T05:25:13;20.13;;;13.37;;
19585;SDS011;9939;49.246;9.106;2022-08-19T05:27:44;24.80;;;14.53;;
19585;SDS011;9939;49.246;9.106;2022-08-19T05:30:12;20.97;;;12.57;;
19585;SDS011;9939;49.246;9.106;2022-08-19T05:32:39;22.93;;;13.43;;
19585;SDS011;9939;49.246;9.106;2022-08-19T05:35:07;22.87;;;13.17;;
19585;SDS011;9939;49.246;9.106;2022-08-19T05:37:34;22.63;;;13.70;;
19585;SDS011;9939;49.246;9.106;2022-08-19T05:40:01;21.43;;;13.10;;
19585;SDS011;9939;49.246;9.106;2022-08-19T05:42:30;23.87;;;13.83;;
19585;SDS011;9939;49.246;9.106;2022-08-19T05:44:57;22.03;;;12.97;;
19585;SDS011;9939;49.246;9.106;2022-08-19T05:47:24;23.40;;;12.77;;
19585;SDS011;9939;49.246;9.106;2022-08-19T05:49:51;22.27;;;12.93;;
19585;SDS011;9939;49.246;9.106;2022-08-19T05:52:18;26.37;;;13.57;;
19585;SDS011;9939;49.246;9.106;2022-08-19T05:54:52;24.47;;;13.07;;
19585;SDS011;9939;49.246;9.106;2022-08-19T05:57:22;23.17;;;13.30;;
19585;SDS011;9939;49.246;9.106;2022-08-19T05:59:50;21.43;;;13.80;;
19585;SDS011;9939;49.246;9.106;2022-08-19T06:02:28;20.17;;;11.97;;
19585;SDS011;9939;49.246;9.106;2022-08-19T06:04:57;19.10;;;12.60;;
19585;SDS011;9939;49.246;9.106;2022-08-19T06:07:24;23.17;;;12.90;;
19585;SDS011;9939;49.246;9.106;2022-08-19T06:09:51;20.70;;;13.03;;
19585;SDS011;9939;49.246;9.106;2022-08-19T06:12:29;22.60;;;12.77;;
19585;SDS011;9939;49.246;9.106;2022-08-19T06:14:59;21.73;;;12.93;;
19585;SDS011;9939;49.246;9.106;2022-08-19T06:17:32;19.90;;;13.50;;
19585;SDS011;9939;49.246;9.106;2022-08-19T06:20:02;18.00;;;11.77;;
19585;SDS011;9939;49.246;9.106;2022-08-19T06:22:30;21.10;;;11.67;;
19585;SDS011;9939;49.246;9.106;2022-08-19T06:24:57;20.10;;;11.23;;
19585;SDS011;9939;49.246;9.106;2022-08-19T06:27:24;18.90;;;11.10;;
19585;SDS011;9939;49.246;9.106;2022-08-19T06:29:51;18.00;;;11.37;;
19585;SDS011;9939;49.246;9.106;2022-08-19T06:32:19;20.23;;;11.20;;
19585;SDS011;9939;49.246;9.106;2022-08-19T06:34:46;18.40;;;11.30;;
19585;SDS011;9939;49.246;9.106;2022-08-19T06:37:13;17.07;;;11.37;;
19585;SDS011;9939;49.246;9.106;2022-08-19T06:39:41;17.80;;;11.00;;
19585;SDS011;9939;49.246;9.106;2022-08-19T06:42:10;18.33;;;11.00;;
19585;SDS011;9939;49.246;9.106;2022-08-19T06:44:44;20.83;;;10.83;;
19585;SDS011;9939;49.246;9.106;2022-08-19T06:47:16;19.63;;;11.27;;
19585;SDS011;9939;49.246;9.106;2022-08-19T06:49:55;17.90;;;11.40;;
19585;SDS011;9939;49.246;9.106;2022-08-19T06:52:32;19.57;;;11.87;;
19585;SDS011;9939;49.246;9.106;2022-08-19T06:55:04;19.23;;;11.10;;
19585;SDS011;9939;49.246;9.106;2022-08-19T06:57:32;16.93;;;11.10;;
19585;SDS011;9939;49.246;9.106;2022-08-19T07:00:00;20.17;;;11.07;;
19585;SDS011;9939;49.246;9.106;2022-08-19T07:02:27;16.70;;;10.97;;
19585;SDS011;9939;49.246;9.106;2022-08-19T07:04:54;18.97;;;10.53;;
19585;SDS011;9939;49.246;9.106;2022-08-19T07:07:24;16.00;;;10.27;;
19585;SDS011;9939;49.246;9.106;2022-08-19T07:09:51;17.97;;;10.17;;
19585;SDS011;9939;49.246;9.106;2022-08-19T07:12:31;20.13;;;11.23;;
19585;SDS011;9939;49.246;9.106;2022-08-19T07:15:01;19.60;;;11.57;;
19585;SDS011;9939;49.246;9.106;2022-08-19T07:17:32;15.47;;;10.23;;
19585;SDS011;9939;49.246;9.106;2022-08-19T07:20:05;17.30;;;10.77;;
19585;SDS011;9939;49.246;9.106;2022-08-19T07:22:35;19.33;;;11.10;;
19585;SDS011;9939;49.246;9.106;2022-08-19T07:25:06;18.53;;;10.83;;
19585;SDS011;9939;49.246;9.106;2022-08-19T07:27:35;15.97;;;10.03;;
19585;SDS011;9939;49.246;9.106;2022-08-19T07:30:05;14.87;;;9.17;;
19585;SDS011;9939;49.246;9.106;2022-08-19T07:32:37;16.30;;;10.00;;
19585;SDS011;9939;49.246;9.106;2022-08-19T07:35:05;17.57;;;10.13;;
19585;SDS011;9939;49.246;9.106;2022-08-19T07:37:33;17.20;;;10.37;;
19585;SDS011;9939;49.246;9.106;2022-08-19T07:40:01;17.33;;;10.27;;
19585;SDS011;9939;49.246;9.106;2022-08-19T07:42:30;17.23;;;9.97;;
19585;SDS011;9939;49.246;9.106;2022-08-19T07:44:57;16.33;;;10.23;;
19585;SDS011;9939;49.246;9.106;2022-08-19T07:47:25;18.07;;;10.50;;
19585;SDS011;9939;49.246;9.106;2022-08-19T07:50:13;14.97;;;10.10;;
19585;SDS011;9939;49.246;9.106;2022-08-19T07:52:41;17.17;;;10.20;;
19585;SDS011;9939;49.246;9.106;2022-08-19T07:55:14;14.53;;;8.40;;
19585;SDS011;9939;49.246;9.106;2022-08-19T07:58:03;16.13;;;10.23;;
19585;SDS011;9939;49.246;9.106;2022-08-19T08:00:31;16.00;;;10.10;;
19585;SDS011;9939;49.246;9.106;2022-08-19T08:02:58;23.10;;;10.40;;
19585;SDS011;9939;49.246;9.106;2022-08-19T08:05:25;14.90;;;10.13;;
19585;SDS011;9939;49.246;9.106;2022-08-19T08:08:11;15.67;;;9.67;;
19585;SDS011;9939;49.246;9.106;2022-08-19T08:10:59;16.60;;;9.80;;
19585;SDS011;9939;49.246;9.106;2022-08-19T08:13:27;15.40;;;9.93;;
19585;SDS011;9939;49.246;9.106;2022-08-19T08:15:55;15.00;;;9.23;;
19585;SDS011;9939;49.246;9.106;2022-08-19T08:18:23;15.53;;;8.80;;
19585;SDS011;9939;49.246;9.106;2022-08-19T08:20:53;14.03;;;8.97;;
19585;SDS011;9939;49.246;9.106;2022-08-19T08:23:21;17.40;;;9.90;;
19585;SDS011;9939;49.246;9.106;2022-08-19T08:25:51;15.93;;;9.30;;
19585;SDS011;9939;49.246;9.106;2022-08-19T08:28:21;12.33;;;8.63;;
19585;SDS011;9939;49.246;9.106;2022-08-19T08:30:49;13.37;;;9.20;;
19585;SDS011;9939;49.246;9.106;2022-08-19T08:33:18;16.93;;;9.60;;
19585;SDS011;9939;49.246;9.106;2022-08-19T08:36:09;16.37;;;9.90;;
19585;SDS011;9939;49.246;9.106;2022-08-19T08:38:37;14.47;;;9.37;;
19585;SDS011;9939;49.246;9.106;2022-08-19T08:43:55;14.10;;;9.43;;
19585;SDS011;9939;49.246;9.106;2022-08-19T08:49:41;16.00;;;8.70;;
19585;SDS011;9939;49.246;9.106;2022-08-19T08:52:04;16.83;;;9.63;;
19585;SDS011;9939;49.246;9.106;2022-08-19T08:54:33;15.17;;;8.90;;
19585;SDS011;9939;49.246;9.106;2022-08-19T08:57:07;10.60;;;7.87;;
19585;SDS011;9939;49.246;9.106;2022-08-19T08:59:42;15.53;;;8.53;;
19585;SDS011;9939;49.246;9.106;2022-08-19T09:02:11;13.63;;;8.13;;
19585;SDS011;9939;49.246;9.106;2022-08-19T09:04:38;14.20;;;8.00;;
19585;SDS011;9939;49.246;9.106;2022-08-19T09:07:20;11.43;;;7.37;;
19585;SDS011;9939;49.246;9.106;2022-08-19T09:10:28;11.83;;;6.90;;
19585;SDS011;9939;49.246;9.106;2022-08-19T09:15:57;12.90;;;6.67;;
19585;SDS011;9939;49.246;9.106;2022-08-19T09:18:39;11.83;;;6.77;;
19585;SDS011;9939;49.246;9.106;2022-08-19T09:21:08;12.30;;;7.00;;
19585;SDS011;9939;49.246;9.106;2022-08-19T09:23:36;14.47;;;7.07;;
19585;SDS011;9939;49.246;9.106;2022-08-19T09:26:11;11.50;;;6.70;;
19585;SDS011;9939;49.246;9.106;2022-08-19T09:28:45;9.83;;;6.37;;
19585;SDS011;9939;49.246;9.106;2022-08-19T09:31:16;10.07;;;6.87;;
19585;SDS011;9939;49.246;9.106;2022-08-19T09:33:45;9.17;;;5.73;;
19585;SDS011;9939;49.246;9.106;2022-08-19T09:36:14;9.00;;;5.40;;
19585;SDS011;9939;49.246;9.106;2022-08-19T09:38:56;8.30;;;5.37;;
19585;SDS011;9939;49.246;9.106;2022-08-19T09:41:24;11.37;;;5.87;;
19585;SDS011;9939;49.246;9.106;2022-08-19T09:43:54;9.93;;;5.40;;
19585;SDS011;9939;49.246;9.106;2022-08-19T09:46:26;9.97;;;4.80;;
19585;SDS011;9939;49.246;9.106;2022-08-19T09:48:56;9.23;;;6.20;;
19585;SDS011;9939;49.246;9.106;2022-08-19T09:51:31;7.43;;;4.70;;
19585;SDS011;9939;49.246;9.106;2022-08-19T09:54:04;8.23;;;5.27;;
19585;SDS011;9939;49.246;9.106;2022-08-19T09:56:31;8.87;;;5.07;;
19585;SDS011;9939;49.246;9.106;2022-08-19T09:59:00;8.80;;;4.57;;
19585;SDS011;9939;49.246;9.106;2022-08-19T10:01:30;8.53;;;5.17;;
19585;SDS011;9939;49.246;9.106;2022-08-19T10:03:59;10.80;;;4.93;;
19585;SDS011;9939;49.246;9.106;2022-08-19T10:06:39;6.73;;;4.60;;
19585;SDS011;9939;49.246;9.106;2022-08-19T10:09:12;7.75;;;4.75;;
19585;SDS011;9939;49.246;9.106;2022-08-19T10:11:40;8.57;;;4.57;;
19585;SDS011;9939;49.246;9.106;2022-08-19T10:14:19;6.28;;;4.45;;
19585;SDS011;9939;49.246;9.106;2022-08-19T10:16:49;7.63;;;4.70;;
19585;SDS011;9939;49.246;9.106;2022-08-19T10:19:18;9.00;;;4.03;;
19585;SDS011;9939;49.246;9.106;2022-08-19T10:21:52;9.70;;;4.82;;
19585;SDS011;9939;49.246;9.106;2022-08-19T10:24:25;7.78;;;4.28;;
19585;SDS011;9939;49.246;9.106;2022-08-19T10:26:54;8.73;;;4.20;;
19585;SDS011;9939;49.246;9.106;2022-08-19T10:29:24;6.75;;;4.20;;
19585;SDS011;9939;49.246;9.106;2022-08-19T10:32:02;7.22;;;4.10;;
19585;SDS011;9939;49.246;9.106;2022-08-19T10:34:38;8.65;;;4.25;;
19585;SDS011;9939;49.246;9.106;2022-08-19T10:37:14;8.90;;;3.83;;
19585;SDS011;9939;49.246;9.106;2022-08-19T10:39:54;6.55;;;4.25;;
19585;SDS011;9939;49.246;9.106;2022-08-19T10:42:21;6.05;;;4.20;;
19585;SDS011;9939;49.246;9.106;2022-08-19T10:44:48;6.57;;;3.78;;
19585;SDS011;9939;49.246;9.106;2022-08-19T10:47:17;5.97;;;3.47;;
19585;SDS011;9939;49.246;9.106;2022-08-19T10:49:51;7.65;;;4.20;;
19585;SDS011;9939;49.246;9.106;2022-08-19T10:52:42;6.15;;;3.83;;
19585;SDS011;9939;49.246;9.106;2022-08-19T10:55:17;10.65;;;4.50;;
19585;SDS011;9939;49.246;9.106;2022-08-19T10:58:11;8.73;;;4.35;;
19585;SDS011;9939;49.246;9.106;2022-08-19T11:00:39;6.80;;;4.53;;
19585;SDS011;9939;49.246;9.106;2022-08-19T11:03:06;6.57;;;3.92;;
19585;SDS011;9939;49.246;9.106;2022-08-19T11:05:35;6.10;;;4.43;;
19585;SDS011;9939;49.246;9.106;2022-08-19T11:08:06;7.70;;;4.20;;
19585;SDS011;9939;49.246;9.106;2022-08-19T11:10:52;5.55;;;4.15;;
19585;SDS011;9939;49.246;9.106;2022-08-19T11:13:27;6.93;;;3.90;;
19585;SDS011;9939;49.246;9.106;2022-08-19T11:16:06;6.63;;;4.18;;
19585;SDS011;9939;49.246;9.106;2022-08-19T11:18:36;6.15;;;4.07;;
19585;SDS011;9939;49.246;9.106;2022-08-19T11:21:09;7.75;;;3.75;;
19585;SDS011;9939;49.246;9.106;2022-08-19T11:23:40;6.15;;;3.78;;
19585;SDS011;9939;49.246;9.106;2022-08-19T11:26:07;7.43;;;3.83;;
19585;SDS011;9939;49.246;9.106;2022-08-19T11:28:34;5.18;;;3.40;;
19585;SDS011;9939;49.246;9.106;2022-08-19T11:31:01;5.63;;;3.80;;
19585;SDS011;9939;49.246;9.106;2022-08-19T11:33:32;5.38;;;3.85;;
19585;SDS011;9939;49.246;9.106;2022-08-19T11:35:59;7.45;;;3.85;;
19585;SDS011;9939;49.246;9.106;2022-08-19T11:38:27;6.88;;;4.28;;
19585;SDS011;9939;49.246;9.106;2022-08-19T11:40:58;5.80;;;4.40;;
19585;SDS011;9939;49.246;9.106;2022-08-19T11:43:26;6.40;;;4.00;;
19585;SDS011;9939;49.246;9.106;2022-08-19T11:45:56;9.00;;;4.38;;
19585;SDS011;9939;49.246;9.106;2022-08-19T11:48:24;7.63;;;4.20;;
19585;SDS011;9939;49.246;9.106;2022-08-19T11:50:52;8.88;;;4.40;;
19585;SDS011;9939;49.246;9.106;2022-08-19T11:53:22;8.93;;;4.20;;
19585;SDS011;9939;49.246;9.106;2022-08-19T11:55:50;6.80;;;3.85;;
19585;SDS011;9939;49.246;9.106;2022-08-19T11:58:22;6.85;;;4.10;;
19585;SDS011;9939;49.246;9.106;2022-08-19T12:00:51;5.70;;;3.97;;
19585;SDS011;9939;49.246;9.106;2022-08-19T12:03:18;8.15;;;4.20;;
19585;SDS011;9939;49.246;9.106;2022-08-19T12:05:46;5.72;;;4.00;;
19585;SDS011;9939;49.246;9.106;2022-08-19T12:08:13;8.35;;;4.63;;
19585;SDS011;9939;49.246;9.106;2022-08-19T12:10:41;8.38;;;4.00;;
19585;SDS011;9939;49.246;9.106;2022-08-19T12:13:09;7.90;;;4.47;;
19585;SDS011;9939;49.246;9.106;2022-08-19T12:15:38;6.95;;;4.53;;
19585;SDS011;9939;49.246;9.106;2022-08-19T12:18:09;7.93;;;4.35;;
19585;SDS011;9939;49.246;9.106;2022-08-19T12:20:37;7.55;;;5.00;;
19585;SDS011;9939;49.246;9.106;2022-08-19T12:23:06;5.93;;;4.00;;
19585;SDS011;9939;49.246;9.106;2022-08-19T12:25:36;8.60;;;4.50;;
19585;SDS011;9939;49.246;9.106;2022-08-19T12:28:14;7.83;;;4.27;;
19585;SDS011;9939;49.246;9.106;2022-08-19T12:30:42;6.25;;;4.43;;
19585;SDS011;9939;49.246;9.106;2022-08-19T12:33:09;5.97;;;4.22;;
19585;SDS011;9939;49.246;9.106;2022-08-19T12:35:39;6.75;;;4.28;;
19585;SDS011;9939;49.246;9.106;2022-08-19T12:38:13;7.50;;;4.20;;
19585;SDS011;9939;49.246;9.106;2022-08-19T12:40:41;7.40;;;4.65;;
19585;SDS011;9939;49.246;9.106;2022-08-19T12:43:08;5.53;;;4.05;;
19585;SDS011;9939;49.246;9.106;2022-08-19T12:45:35;9.52;;;4.32;;
19585;SDS011;9939;49.246;9.106;2022-08-19T12:48:03;8.35;;;4.72;;
19585;SDS011;9939;49.246;9.106;2022-08-19T12:50:50;6.13;;;4.03;;
19585;SDS011;9939;49.246;9.106;2022-08-19T12:53:17;6.10;;;4.05;;
19585;SDS011;9939;49.246;9.106;2022-08-19T12:55:44;6.65;;;4.10;;
19585;SDS011;9939;49.246;9.106;2022-08-19T12:58:12;5.68;;;3.92;;
19585;SDS011;9939;49.246;9.106;2022-08-19T13:00:39;6.18;;;4.30;;
19585;SDS011;9939;49.246;9.106;2022-08-19T13:03:07;9.23;;;4.50;;
19585;SDS011;9939;49.246;9.106;2022-08-19T13:05:34;7.78;;;4.28;;
19585;SDS011;9939;49.246;9.106;2022-08-19T13:08:00;5.47;;;3.78;;
19585;SDS011;9939;49.246;9.106;2022-08-19T13:10:30;6.00;;;4.18;;
19585;SDS011;9939;49.246;9.106;2022-08-19T13:13:03;5.90;;;4.30;;
19585;SDS011;9939;49.246;9.106;2022-08-19T13:15:33;7.25;;;4.63;;
19585;SDS011;9939;49.246;9.106;2022-08-19T13:18:01;7.93;;;4.80;;
19585;SDS011;9939;49.246;9.106;2022-08-19T13:20:28;6.32;;;4.32;;
19585;SDS011;9939;49.246;9.106;2022-08-19T13:22:56;6.30;;;4.18;;
19585;SDS011;9939;49.246;9.106;2022-08-19T13:25:23;6.40;;;4.13;;
19585;SDS011;9939;49.246;9.106;2022-08-19T13:27:51;4.97;;;4.18;;
19585;SDS011;9939;49.246;9.106;2022-08-19T13:30:19;6.32;;;4.38;;
19585;SDS011;9939;49.246;9.106;2022-08-19T13:33:06;7.78;;;4.78;;
19585;SDS011;9939;49.246;9.106;2022-08-19T13:35:41;6.63;;;3.97;;
19585;SDS011;9939;49.246;9.106;2022-08-19T13:38:17;6.63;;;4.65;;
19585;SDS011;9939;49.246;9.106;2022-08-19T13:40:47;9.27;;;4.68;;
19585;SDS011;9939;49.246;9.106;2022-08-19T13:43:16;6.43;;;4.57;;
19585;SDS011;9939;49.246;9.106;2022-08-19T13:45:49;6.00;;;4.47;;
19585;SDS011;9939;49.246;9.106;2022-08-19T13:48:20;6.68;;;4.40;;
19585;SDS011;9939;49.246;9.106;2022-08-19T13:50:47;9.75;;;4.90;;
19585;SDS011;9939;49.246;9.106;2022-08-19T13:53:15;5.95;;;4.30;;
19585;SDS011;9939;49.246;9.106;2022-08-19T13:55:43;5.57;;;4.47;;
19585;SDS011;9939;49.246;9.106;2022-08-19T13:58:10;6.38;;;4.40;;
19585;SDS011;9939;49.246;9.106;2022-08-19T14:00:41;8.05;;;5.18;;
19585;SDS011;9939;49.246;9.106;2022-08-19T14:03:10;7.65;;;5.07;;
19585;SDS011;9939;49.246;9.106;2022-08-19T14:05:37;7.45;;;5.13;;
19585;SDS011;9939;49.246;9.106;2022-08-19T14:08:05;8.32;;;5.32;;
19585;SDS011;9939;49.246;9.106;2022-08-19T14:10:32;10.15;;;6.05;;
19585;SDS011;9939;49.246;9.106;2022-08-19T14:13:01;9.38;;;5.93;;
19585;SDS011;9939;49.246;9.106;2022-08-19T14:15:29;9.90;;;6.43;;
19585;SDS011;9939;49.246;9.106;2022-08-19T14:17:57;10.95;;;6.30;;
19585;SDS011;9939;49.246;9.106;2022-08-19T14:20:24;10.60;;;6.63;;
19585;SDS011;9939;49.246;9.106;2022-08-19T14:22:52;8.55;;;6.80;;
19585;SDS011;9939;49.246;9.106;2022-08-19T14:25:24;10.05;;;7.25;;
19585;SDS011;9939;49.246;9.106;2022-08-19T14:27:53;9.90;;;7.07;;
19585;SDS011;9939;49.246;9.106;2022-08-19T14:30:22;8.20;;;6.15;;
19585;SDS011;9939;49.246;9.106;2022-08-19T14:32:53;8.93;;;6.55;;
19585;SDS011;9939;49.246;9.106;2022-08-19T14:35:25;9.52;;;6.65;;
19585;SDS011;9939;49.246;9.106;2022-08-19T14:37:53;14.20;;;6.20;;
19585;SDS011;9939;49.246;9.106;2022-08-19T14:40:22;8.68;;;6.22;;
19585;SDS011;9939;49.246;9.106;2022-08-19T14:42:52;10.10;;;6.72;;
19585;SDS011;9939;49.246;9.106;2022-08-19T14:45:28;12.15;;;6.00;;
19585;SDS011;9939;49.246;9.106;2022-08-19T14:47:57;10.68;;;5.95;;
19585;SDS011;9939;49.246;9.106;2022-08-19T14:50:26;8.43;;;5.60;;
19585;SDS011;9939;49.246;9.106;2022-08-19T14:52:58;8.50;;;5.57;;
19585;SDS011;9939;49.246;9.106;2022-08-19T14:55:40;7.90;;;6.20;;
19585;SDS011;9939;49.246;9.106;2022-08-19T14:58:09;8.63;;;6.43;;
19585;SDS011;9939;49.246;9.106;2022-08-19T15:00:56;9.98;;;6.20;;
19585;SDS011;9939;49.246;9.106;2022-08-19T15:03:24;7.93;;;5.15;;
19585;SDS011;9939;49.246;9.106;2022-08-19T15:05:52;7.07;;;5.45;;
19585;SDS011;9939;49.246;9.106;2022-08-19T15:08:19;8.05;;;5.32;;
19585;SDS011;9939;49.246;9.106;2022-08-19T15:10:51;6.30;;;4.97;;
19585;SDS011;9939;49.246;9.106;2022-08-19T15:13:18;9.93;;;5.78;;
19585;SDS011;9939;49.246;9.106;2022-08-19T15:15:46;7.25;;;5.32;;
19585;SDS011;9939;49.246;9.106;2022-08-19T15:18:14;6.78;;;5.05;;